sensor_id;sensor_type;location;lat;lon;timestamp;temperature;humidity
76345;DHT22;65160;50.504;3.666;2023-03-14T00:00:11;10.34;78.88
76345;DHT22;65160;50.504;3.666;2023-03-14T00:02:39;10.31;78.92
76345;DHT22;65160;50.504;3.666;2023-03-14T00:05:05;10.36;78.53
76345;DHT22;65160;50.504;3.666;2023-03-14T00:07:36;10.40;78.34
76345;DHT22;65160;50.504;3.666;2023-03-14T00:10:13;10.42;78.58
76345;DHT22;65160;50.504;3.666;2023-03-14T00:12:40;10.41;78.30
76345;DHT22;65160;50.504;3.666;2023-03-14T00:15:06;10.48;78.17
76345;DHT22;65160;50.504;3.666;2023-03-14T00:17:33;10.47;78.16
76345;DHT22;65160;50.504;3.666;2023-03-14T00:19:59;10.50;77.94
76345;DHT22;65160;50.504;3.666;2023-03-14T00:22:30;10.57;77.78
76345;DHT22;65160;50.504;3.666;2023-03-14T00:24:56;10.59;77.76
76345;DHT22;65160;50.504;3.666;2023-03-14T00:27:22;10.67;77.88
76345;DHT22;65160;50.504;3.666;2023-03-14T00:29:47;10.51;78.71
76345;DHT22;65160;50.504;3.666;2023-03-14T00:32:13;10.45;78.69
76345;DHT22;65160;50.504;3.666;2023-03-14T00:34:38;10.47;79.05
76345;DHT22;65160;50.504;3.666;2023-03-14T00:37:05;10.54;78.13
76345;DHT22;65160;50.504;3.666;2023-03-14T00:39:30;10.44;78.71
76345;DHT22;65160;50.504;3.666;2023-03-14T00:41:56;10.38;79.55
76345;DHT22;65160;50.504;3.666;2023-03-14T00:44:21;10.24;80.94
76345;DHT22;65160;50.504;3.666;2023-03-14T00:46:47;10.12;82.19
76345;DHT22;65160;50.504;3.666;2023-03-14T00:49:12;9.99;83.62
76345;DHT22;65160;50.504;3.666;2023-03-14T00:51:38;9.83;85.60
76345;DHT22;65160;50.504;3.666;2023-03-14T00:54:03;9.61;87.16
76345;DHT22;65160;50.504;3.666;2023-03-14T00:56:30;9.47;87.67
76345;DHT22;65160;50.504;3.666;2023-03-14T00:58:56;9.32;88.39
76345;DHT22;65160;50.504;3.666;2023-03-14T01:01:22;9.27;89.39
76345;DHT22;65160;50.504;3.666;2023-03-14T01:03:51;9.21;90.46
76345;DHT22;65160;50.504;3.666;2023-03-14T01:06:20;9.14;91.08
76345;DHT22;65160;50.504;3.666;2023-03-14T01:08:46;9.16;91.66
76345;DHT22;65160;50.504;3.666;2023-03-14T01:11:17;9.13;91.92
76345;DHT22;65160;50.504;3.666;2023-03-14T01:13:43;9.14;92.23
76345;DHT22;65160;50.504;3.666;2023-03-14T01:16:10;9.20;92.70
76345;DHT22;65160;50.504;3.666;2023-03-14T01:18:37;9.16;92.56
76345;DHT22;65160;50.504;3.666;2023-03-14T01:21:09;9.17;92.69
76345;DHT22;65160;50.504;3.666;2023-03-14T01:23:35;9.20;92.96
76345;DHT22;65160;50.504;3.666;2023-03-14T01:26:00;9.14;93.09
76345;DHT22;65160;50.504;3.666;2023-03-14T01:28:26;9.14;93.33
76345;DHT22;65160;50.504;3.666;2023-03-14T01:30:51;9.27;93.51
76345;DHT22;65160;50.504;3.666;2023-03-14T01:33:17;9.30;93.49
76345;DHT22;65160;50.504;3.666;2023-03-14T01:35:42;9.24;93.32
76345;DHT22;65160;50.504;3.666;2023-03-14T01:38:08;9.28;93.49
76345;DHT22;65160;50.504;3.666;2023-03-14T01:40:33;9.27;93.71
76345;DHT22;65160;50.504;3.666;2023-03-14T01:43:12;9.38;93.63
76345;DHT22;65160;50.504;3.666;2023-03-14T01:48:39;9.37;93.05
76345;DHT22;65160;50.504;3.666;2023-03-14T01:51:09;9.34;92.92
76345;DHT22;65160;50.504;3.666;2023-03-14T01:53:37;9.28;92.59
76345;DHT22;65160;50.504;3.666;2023-03-14T01:56:04;9.31;92.41
76345;DHT22;65160;50.504;3.666;2023-03-14T01:58:32;9.28;92.17
76345;DHT22;65160;50.504;3.666;2023-03-14T02:01:03;9.28;91.95
76345;DHT22;65160;50.504;3.666;2023-03-14T02:03:30;9.27;92.20
76345;DHT22;65160;50.504;3.666;2023-03-14T02:06:04;9.38;92.46
76345;DHT22;65160;50.504;3.666;2023-03-14T02:08:33;9.42;92.43
76345;DHT22;65160;50.504;3.666;2023-03-14T02:11:00;9.47;92.74
76345;DHT22;65160;50.504;3.666;2023-03-14T02:13:26;9.48;92.90
76345;DHT22;65160;50.504;3.666;2023-03-14T02:15:51;9.42;92.46
76345;DHT22;65160;50.504;3.666;2023-03-14T02:18:17;9.40;92.12
76345;DHT22;65160;50.504;3.666;2023-03-14T02:21:05;9.35;92.35
76345;DHT22;65160;50.504;3.666;2023-03-14T02:26:28;9.40;92.32
76345;DHT22;65160;50.504;3.666;2023-03-14T02:28:55;9.35;92.45
76345;DHT22;65160;50.504;3.666;2023-03-14T02:31:21;9.34;92.39
76345;DHT22;65160;50.504;3.666;2023-03-14T02:33:47;9.35;92.64
76345;DHT22;65160;50.504;3.666;2023-03-14T02:36:14;9.32;92.98
76345;DHT22;65160;50.504;3.666;2023-03-14T02:38:42;9.35;93.20
76345;DHT22;65160;50.504;3.666;2023-03-14T02:41:10;9.44;93.49
76345;DHT22;65160;50.504;3.666;2023-03-14T02:43:36;9.41;93.54
76345;DHT22;65160;50.504;3.666;2023-03-14T02:46:03;9.42;93.58
76345;DHT22;65160;50.504;3.666;2023-03-14T02:48:43;9.41;93.60
76345;DHT22;65160;50.504;3.666;2023-03-14T02:51:11;9.44;93.74
76345;DHT22;65160;50.504;3.666;2023-03-14T02:53:37;9.45;93.77
76345;DHT22;65160;50.504;3.666;2023-03-14T02:56:04;9.44;93.58
76345;DHT22;65160;50.504;3.666;2023-03-14T02:58:30;9.47;93.64
76345;DHT22;65160;50.504;3.666;2023-03-14T03:00:56;9.45;93.79
76345;DHT22;65160;50.504;3.666;2023-03-14T03:03:21;9.47;93.93
76345;DHT22;65160;50.504;3.666;2023-03-14T03:05:51;9.49;93.77
76345;DHT22;65160;50.504;3.666;2023-03-14T03:08:19;9.54;93.81
76345;DHT22;65160;50.504;3.666;2023-03-14T03:10:45;9.57;93.99
76345;DHT22;65160;50.504;3.666;2023-03-14T03:13:11;9.55;93.64
76345;DHT22;65160;50.504;3.666;2023-03-14T03:15:36;9.61;93.20
76345;DHT22;65160;50.504;3.666;2023-03-14T03:18:02;9.59;93.32
76345;DHT22;65160;50.504;3.666;2023-03-14T03:20:27;9.61;93.49
76345;DHT22;65160;50.504;3.666;2023-03-14T03:22:53;9.59;93.61
76345;DHT22;65160;50.504;3.666;2023-03-14T03:25:19;9.57;93.79
76345;DHT22;65160;50.504;3.666;2023-03-14T03:27:44;9.58;93.78
76345;DHT22;65160;50.504;3.666;2023-03-14T03:30:10;9.58;94.02
76345;DHT22;65160;50.504;3.666;2023-03-14T03:32:36;9.58;94.08
76345;DHT22;65160;50.504;3.666;2023-03-14T03:35:03;9.58;94.20
76345;DHT22;65160;50.504;3.666;2023-03-14T03:37:33;9.61;94.34
76345;DHT22;65160;50.504;3.666;2023-03-14T03:39:59;9.59;94.31
76345;DHT22;65160;50.504;3.666;2023-03-14T03:42:26;9.59;94.27
76345;DHT22;65160;50.504;3.666;2023-03-14T03:44:52;9.55;94.03
76345;DHT22;65160;50.504;3.666;2023-03-14T03:47:17;9.59;94.15
76345;DHT22;65160;50.504;3.666;2023-03-14T03:49:43;9.62;94.10
76345;DHT22;65160;50.504;3.666;2023-03-14T03:52:09;9.62;94.18
76345;DHT22;65160;50.504;3.666;2023-03-14T03:54:35;9.63;94.06
76345;DHT22;65160;50.504;3.666;2023-03-14T03:57:00;9.63;93.66
76345;DHT22;65160;50.504;3.666;2023-03-14T03:59:26;9.65;93.59
76345;DHT22;65160;50.504;3.666;2023-03-14T04:01:51;9.69;93.29
76345;DHT22;65160;50.504;3.666;2023-03-14T04:04:17;9.69;93.59
76345;DHT22;65160;50.504;3.666;2023-03-14T04:06:42;9.68;93.95
76345;DHT22;65160;50.504;3.666;2023-03-14T04:09:09;9.69;94.22
76345;DHT22;65160;50.504;3.666;2023-03-14T04:11:35;9.66;94.41
76345;DHT22;65160;50.504;3.666;2023-03-14T04:14:01;9.68;94.49
76345;DHT22;65160;50.504;3.666;2023-03-14T04:16:26;9.71;94.63
76345;DHT22;65160;50.504;3.666;2023-03-14T04:18:52;9.68;94.67
76345;DHT22;65160;50.504;3.666;2023-03-14T04:21:18;9.68;94.70
76345;DHT22;65160;50.504;3.666;2023-03-14T04:23:43;9.68;94.67
76345;DHT22;65160;50.504;3.666;2023-03-14T04:26:09;9.71;94.63
76345;DHT22;65160;50.504;3.666;2023-03-14T04:28:35;9.72;94.50
76345;DHT22;65160;50.504;3.666;2023-03-14T04:31:12;9.71;94.36
76345;DHT22;65160;50.504;3.666;2023-03-14T04:33:37;9.69;94.30
76345;DHT22;65160;50.504;3.666;2023-03-14T04:36:04;9.69;94.30
76345;DHT22;65160;50.504;3.666;2023-03-14T04:38:30;9.71;94.27
76345;DHT22;65160;50.504;3.666;2023-03-14T04:40:55;9.69;94.20
76345;DHT22;65160;50.504;3.666;2023-03-14T04:43:21;9.74;94.09
76345;DHT22;65160;50.504;3.666;2023-03-14T04:45:46;9.75;93.85
76345;DHT22;65160;50.504;3.666;2023-03-14T04:48:12;9.74;93.69
76345;DHT22;65160;50.504;3.666;2023-03-14T04:50:38;9.75;93.42
76345;DHT22;65160;50.504;3.666;2023-03-14T04:53:04;9.78;93.09
76345;DHT22;65160;50.504;3.666;2023-03-14T04:55:31;9.75;93.06
76345;DHT22;65160;50.504;3.666;2023-03-14T04:57:57;9.76;93.18
76345;DHT22;65160;50.504;3.666;2023-03-14T05:00:22;9.72;93.26
76345;DHT22;65160;50.504;3.666;2023-03-14T05:02:48;9.68;93.10
76345;DHT22;65160;50.504;3.666;2023-03-14T05:05:13;9.69;93.25
76345;DHT22;65160;50.504;3.666;2023-03-14T05:07:39;9.69;93.19
76345;DHT22;65160;50.504;3.666;2023-03-14T05:10:05;9.71;93.21
76345;DHT22;65160;50.504;3.666;2023-03-14T05:12:30;9.69;93.14
76345;DHT22;65160;50.504;3.666;2023-03-14T05:14:56;9.71;93.08
76345;DHT22;65160;50.504;3.666;2023-03-14T05:17:21;9.66;92.96
76345;DHT22;65160;50.504;3.666;2023-03-14T05:19:47;9.68;93.15
76345;DHT22;65160;50.504;3.666;2023-03-14T05:22:12;9.66;92.96
76345;DHT22;65160;50.504;3.666;2023-03-14T05:24:38;9.69;93.18
76345;DHT22;65160;50.504;3.666;2023-03-14T05:27:04;9.66;93.19
76345;DHT22;65160;50.504;3.666;2023-03-14T05:29:30;9.63;93.48
76345;DHT22;65160;50.504;3.666;2023-03-14T05:31:55;9.62;93.84
76345;DHT22;65160;50.504;3.666;2023-03-14T05:34:21;9.62;94.05
76345;DHT22;65160;50.504;3.666;2023-03-14T05:36:46;9.58;94.20
76345;DHT22;65160;50.504;3.666;2023-03-14T05:39:12;9.58;94.39
76345;DHT22;65160;50.504;3.666;2023-03-14T05:41:37;9.55;94.55
76345;DHT22;65160;50.504;3.666;2023-03-14T05:44:03;9.52;94.67
76345;DHT22;65160;50.504;3.666;2023-03-14T05:46:29;9.48;94.92
76345;DHT22;65160;50.504;3.666;2023-03-14T05:48:57;9.49;95.08
76345;DHT22;65160;50.504;3.666;2023-03-14T05:51:22;9.47;95.15
76345;DHT22;65160;50.504;3.666;2023-03-14T05:53:48;9.49;95.30
76345;DHT22;65160;50.504;3.666;2023-03-14T05:56:14;9.48;95.42
76345;DHT22;65160;50.504;3.666;2023-03-14T05:58:39;9.48;95.40
76345;DHT22;65160;50.504;3.666;2023-03-14T06:01:05;9.45;95.34
76345;DHT22;65160;50.504;3.666;2023-03-14T06:03:32;9.44;95.21
76345;DHT22;65160;50.504;3.666;2023-03-14T06:05:57;9.44;95.39
76345;DHT22;65160;50.504;3.666;2023-03-14T06:08:23;9.42;95.79
76345;DHT22;65160;50.504;3.666;2023-03-14T06:10:48;8.80;93.64
76345;DHT22;65160;50.504;3.666;2023-03-14T06:13:14;8.42;93.47
76345;DHT22;65160;50.504;3.666;2023-03-14T06:15:41;8.21;92.94
76345;DHT22;65160;50.504;3.666;2023-03-14T06:18:06;7.87;91.84
76345;DHT22;65160;50.504;3.666;2023-03-14T06:20:32;7.55;90.77
76345;DHT22;65160;50.504;3.666;2023-03-14T06:22:58;7.41;91.33
76345;DHT22;65160;50.504;3.666;2023-03-14T06:25:24;7.40;91.89
76345;DHT22;65160;50.504;3.666;2023-03-14T06:27:50;7.35;92.63
76345;DHT22;65160;50.504;3.666;2023-03-14T06:30:16;7.38;92.72
76345;DHT22;65160;50.504;3.666;2023-03-14T06:32:41;7.40;93.23
76345;DHT22;65160;50.504;3.666;2023-03-14T06:35:07;7.31;92.88
76345;DHT22;65160;50.504;3.666;2023-03-14T06:37:33;7.28;92.68
76345;DHT22;65160;50.504;3.666;2023-03-14T06:39:59;7.17;92.72
76345;DHT22;65160;50.504;3.666;2023-03-14T06:42:24;7.10;92.61
76345;DHT22;65160;50.504;3.666;2023-03-14T06:44:50;7.14;93.15
76345;DHT22;65160;50.504;3.666;2023-03-14T06:47:15;7.16;93.71
76345;DHT22;65160;50.504;3.666;2023-03-14T06:49:41;7.10;93.68
76345;DHT22;65160;50.504;3.666;2023-03-14T06:52:06;7.16;94.05
76345;DHT22;65160;50.504;3.666;2023-03-14T06:54:32;7.11;93.68
76345;DHT22;65160;50.504;3.666;2023-03-14T06:56:57;6.99;92.79
76345;DHT22;65160;50.504;3.666;2023-03-14T06:59:23;6.86;91.52
76345;DHT22;65160;50.504;3.666;2023-03-14T07:01:48;6.79;91.23
76345;DHT22;65160;50.504;3.666;2023-03-14T07:04:16;6.78;92.18
76345;DHT22;65160;50.504;3.666;2023-03-14T07:06:41;6.78;92.05
76345;DHT22;65160;50.504;3.666;2023-03-14T07:09:10;6.79;92.16
76345;DHT22;65160;50.504;3.666;2023-03-14T07:11:36;6.82;92.09
76345;DHT22;65160;50.504;3.666;2023-03-14T07:14:02;6.89;92.87
76345;DHT22;65160;50.504;3.666;2023-03-14T07:16:28;6.73;92.26
76345;DHT22;65160;50.504;3.666;2023-03-14T07:18:57;6.80;92.34
76345;DHT22;65160;50.504;3.666;2023-03-14T07:21:23;6.78;92.07
76345;DHT22;65160;50.504;3.666;2023-03-14T07:23:48;6.64;91.15
76345;DHT22;65160;50.504;3.666;2023-03-14T07:26:14;6.68;91.17
76345;DHT22;65160;50.504;3.666;2023-03-14T07:28:39;6.58;90.71
76345;DHT22;65160;50.504;3.666;2023-03-14T07:31:05;6.56;89.96
76345;DHT22;65160;50.504;3.666;2023-03-14T07:33:30;6.48;89.64
76345;DHT22;65160;50.504;3.666;2023-03-14T07:35:56;6.46;88.66
76345;DHT22;65160;50.504;3.666;2023-03-14T07:38:21;6.48;89.27
76345;DHT22;65160;50.504;3.666;2023-03-14T07:40:47;6.42;88.56
76345;DHT22;65160;50.504;3.666;2023-03-14T07:43:12;6.44;88.09
76345;DHT22;65160;50.504;3.666;2023-03-14T07:45:38;6.38;88.43
76345;DHT22;65160;50.504;3.666;2023-03-14T07:48:03;6.34;87.29
76345;DHT22;65160;50.504;3.666;2023-03-14T07:50:29;6.32;88.28
76345;DHT22;65160;50.504;3.666;2023-03-14T07:52:55;6.28;88.13
76345;DHT22;65160;50.504;3.666;2023-03-14T07:55:20;6.37;87.65
76345;DHT22;65160;50.504;3.666;2023-03-14T07:57:46;6.37;87.13
76345;DHT22;65160;50.504;3.666;2023-03-14T08:00:12;6.25;84.25
76345;DHT22;65160;50.504;3.666;2023-03-14T08:02:40;6.41;85.42
76345;DHT22;65160;50.504;3.666;2023-03-14T08:05:06;6.48;84.64
76345;DHT22;65160;50.504;3.666;2023-03-14T08:07:31;6.45;81.40
76345;DHT22;65160;50.504;3.666;2023-03-14T08:09:57;6.44;81.44
76345;DHT22;65160;50.504;3.666;2023-03-14T08:12:22;6.48;83.63
76345;DHT22;65160;50.504;3.666;2023-03-14T08:14:48;6.55;84.09
76345;DHT22;65160;50.504;3.666;2023-03-14T08:17:13;6.66;84.44
76345;DHT22;65160;50.504;3.666;2023-03-14T08:19:41;6.73;82.90
76345;DHT22;65160;50.504;3.666;2023-03-14T08:22:06;6.75;81.97
76345;DHT22;65160;50.504;3.666;2023-03-14T08:24:32;6.85;82.87
76345;DHT22;65160;50.504;3.666;2023-03-14T08:26:57;6.95;83.62
76345;DHT22;65160;50.504;3.666;2023-03-14T08:29:23;6.90;79.43
76345;DHT22;65160;50.504;3.666;2023-03-14T08:31:48;6.80;79.64
76345;DHT22;65160;50.504;3.666;2023-03-14T08:34:15;6.78;80.99
76345;DHT22;65160;50.504;3.666;2023-03-14T08:36:40;6.65;78.22
76345;DHT22;65160;50.504;3.666;2023-03-14T08:39:06;6.66;78.31
76345;DHT22;65160;50.504;3.666;2023-03-14T08:41:33;6.75;79.99
76345;DHT22;65160;50.504;3.666;2023-03-14T08:44:00;6.86;80.90
76345;DHT22;65160;50.504;3.666;2023-03-14T08:46:25;6.93;79.30
76345;DHT22;65160;50.504;3.666;2023-03-14T08:48:51;7.13;78.95
76345;DHT22;65160;50.504;3.666;2023-03-14T08:51:16;7.21;78.93
76345;DHT22;65160;50.504;3.666;2023-03-14T08:53:43;7.11;76.07
76345;DHT22;65160;50.504;3.666;2023-03-14T08:56:09;7.23;78.16
76345;DHT22;65160;50.504;3.666;2023-03-14T08:58:36;7.30;78.12
76345;DHT22;65160;50.504;3.666;2023-03-14T09:01:04;7.16;75.97
76345;DHT22;65160;50.504;3.666;2023-03-14T09:03:30;7.14;76.28
76345;DHT22;65160;50.504;3.666;2023-03-14T09:05:55;7.20;77.22
76345;DHT22;65160;50.504;3.666;2023-03-14T09:08:21;7.27;74.67
76345;DHT22;65160;50.504;3.666;2023-03-14T09:10:46;7.41;73.52
76345;DHT22;65160;50.504;3.666;2023-03-14T09:13:12;7.41;73.33
76345;DHT22;65160;50.504;3.666;2023-03-14T09:15:37;7.41;74.95
76345;DHT22;65160;50.504;3.666;2023-03-14T09:18:03;7.16;73.12
76345;DHT22;65160;50.504;3.666;2023-03-14T09:20:29;7.17;74.65
76345;DHT22;65160;50.504;3.666;2023-03-14T09:22:55;7.28;74.69
76345;DHT22;65160;50.504;3.666;2023-03-14T09:25:20;7.21;73.90
76345;DHT22;65160;50.504;3.666;2023-03-14T09:27:46;7.38;73.22
76345;DHT22;65160;50.504;3.666;2023-03-14T09:30:11;7.47;72.36
76345;DHT22;65160;50.504;3.666;2023-03-14T09:32:37;7.51;70.94
76345;DHT22;65160;50.504;3.666;2023-03-14T09:35:03;7.63;72.08
76345;DHT22;65160;50.504;3.666;2023-03-14T09:37:29;7.99;71.39
76345;DHT22;65160;50.504;3.666;2023-03-14T09:39:54;8.27;69.14
76345;DHT22;65160;50.504;3.666;2023-03-14T09:42:24;8.49;68.65
76345;DHT22;65160;50.504;3.666;2023-03-14T09:44:57;8.52;67.89
76345;DHT22;65160;50.504;3.666;2023-03-14T09:47:24;8.82;67.71
76345;DHT22;65160;50.504;3.666;2023-03-14T09:49:51;8.71;68.53
76345;DHT22;65160;50.504;3.666;2023-03-14T09:52:39;8.59;66.58
76345;DHT22;65160;50.504;3.666;2023-03-14T09:55:22;8.77;65.62
76345;DHT22;65160;50.504;3.666;2023-03-14T09:57:49;8.99;64.90
76345;DHT22;65160;50.504;3.666;2023-03-14T10:00:21;9.28;65.19
76345;DHT22;65160;50.504;3.666;2023-03-14T10:02:54;9.20;63.89
76345;DHT22;65160;50.504;3.666;2023-03-14T10:05:23;9.72;64.11
76345;DHT22;65160;50.504;3.666;2023-03-14T10:07:49;9.40;63.46
76345;DHT22;65160;50.504;3.666;2023-03-14T10:10:20;9.48;63.90
76345;DHT22;65160;50.504;3.666;2023-03-14T10:12:47;9.58;62.35
76345;DHT22;65160;50.504;3.666;2023-03-14T10:15:30;8.77;62.28
76345;DHT22;65160;50.504;3.666;2023-03-14T10:17:59;8.37;63.11
76345;DHT22;65160;50.504;3.666;2023-03-14T10:20:32;8.40;63.16
76345;DHT22;65160;50.504;3.666;2023-03-14T10:25:41;8.71;63.27
76345;DHT22;65160;50.504;3.666;2023-03-14T10:28:46;8.72;62.83
76345;DHT22;65160;50.504;3.666;2023-03-14T10:31:13;8.44;63.67
76345;DHT22;65160;50.504;3.666;2023-03-14T10:33:39;8.37;63.72
76345;DHT22;65160;50.504;3.666;2023-03-14T10:38:45;8.34;66.13
76345;DHT22;65160;50.504;3.666;2023-03-14T10:41:17;8.27;65.31
76345;DHT22;65160;50.504;3.666;2023-03-14T10:43:44;8.31;64.74
76345;DHT22;65160;50.504;3.666;2023-03-14T10:46:17;8.27;64.50
76345;DHT22;65160;50.504;3.666;2023-03-14T10:48:43;8.34;65.58
76345;DHT22;65160;50.504;3.666;2023-03-14T10:51:18;8.41;64.66
76345;DHT22;65160;50.504;3.666;2023-03-14T10:56:24;8.37;64.34
76345;DHT22;65160;50.504;3.666;2023-03-14T10:58:52;8.45;65.24
76345;DHT22;65160;50.504;3.666;2023-03-14T11:01:36;8.41;63.92
76345;DHT22;65160;50.504;3.666;2023-03-14T11:06:44;8.56;64.49
76345;DHT22;65160;50.504;3.666;2023-03-14T11:09:28;8.54;64.84
76345;DHT22;65160;50.504;3.666;2023-03-14T11:12:02;8.52;64.36
76345;DHT22;65160;50.504;3.666;2023-03-14T11:14:38;8.31;63.07
76345;DHT22;65160;50.504;3.666;2023-03-14T11:17:20;8.48;64.62
76345;DHT22;65160;50.504;3.666;2023-03-14T11:26:09;8.48;63.75
76345;DHT22;65160;50.504;3.666;2023-03-14T11:28:40;8.24;64.30
76345;DHT22;65160;50.504;3.666;2023-03-14T11:34:01;8.28;66.30
76345;DHT22;65160;50.504;3.666;2023-03-14T11:36:33;8.42;66.16
76345;DHT22;65160;50.504;3.666;2023-03-14T11:39:01;8.44;65.13
76345;DHT22;65160;50.504;3.666;2023-03-14T11:41:44;8.51;66.20
76345;DHT22;65160;50.504;3.666;2023-03-14T11:44:18;8.49;64.15
76345;DHT22;65160;50.504;3.666;2023-03-14T11:46:55;8.26;65.03
76345;DHT22;65160;50.504;3.666;2023-03-14T11:49:35;8.35;66.10
76345;DHT22;65160;50.504;3.666;2023-03-14T11:52:31;8.44;65.72
76345;DHT22;65160;50.504;3.666;2023-03-14T11:57:25;8.33;64.35
76345;DHT22;65160;50.504;3.666;2023-03-14T11:59:55;8.41;64.49
76345;DHT22;65160;50.504;3.666;2023-03-14T12:11:01;8.37;63.70
76345;DHT22;65160;50.504;3.666;2023-03-14T12:13:29;8.42;64.93
76345;DHT22;65160;50.504;3.666;2023-03-14T12:15:59;8.48;64.26
76345;DHT22;65160;50.504;3.666;2023-03-14T12:18:30;8.41;65.81
76345;DHT22;65160;50.504;3.666;2023-03-14T12:21:02;8.21;65.42
76345;DHT22;65160;50.504;3.666;2023-03-14T12:26:13;8.13;67.75
76345;DHT22;65160;50.504;3.666;2023-03-14T12:28:44;8.00;68.12
76345;DHT22;65160;50.504;3.666;2023-03-14T12:39:35;7.79;69.33
76345;DHT22;65160;50.504;3.666;2023-03-14T12:42:10;7.62;70.70
76345;DHT22;65160;50.504;3.666;2023-03-14T12:44:46;7.55;71.95
76345;DHT22;65160;50.504;3.666;2023-03-14T12:49:44;6.97;79.15
76345;DHT22;65160;50.504;3.666;2023-03-14T12:55:32;6.62;82.74
76345;DHT22;65160;50.504;3.666;2023-03-14T12:58:21;6.61;83.13
76345;DHT22;65160;50.504;3.666;2023-03-14T13:00:55;6.56;84.35
76345;DHT22;65160;50.504;3.666;2023-03-14T13:03:25;6.53;83.77
76345;DHT22;65160;50.504;3.666;2023-03-14T13:08:44;6.68;83.73
76345;DHT22;65160;50.504;3.666;2023-03-14T13:11:16;6.44;84.94
76345;DHT22;65160;50.504;3.666;2023-03-14T13:13:56;6.25;86.51
76345;DHT22;65160;50.504;3.666;2023-03-14T13:16:23;6.17;87.68
76345;DHT22;65160;50.504;3.666;2023-03-14T13:18:51;6.20;88.61
76345;DHT22;65160;50.504;3.666;2023-03-14T13:21:26;6.07;87.78
76345;DHT22;65160;50.504;3.666;2023-03-14T13:26:25;5.92;87.88
76345;DHT22;65160;50.504;3.666;2023-03-14T13:28:56;5.79;88.04
76345;DHT22;65160;50.504;3.666;2023-03-14T13:31:24;5.44;87.80
76345;DHT22;65160;50.504;3.666;2023-03-14T13:34:01;5.54;89.74
76345;DHT22;65160;50.504;3.666;2023-03-14T13:36:27;5.51;88.21
76345;DHT22;65160;50.504;3.666;2023-03-14T13:38:58;5.39;88.52
76345;DHT22;65160;50.504;3.666;2023-03-14T13:41:24;5.45;89.12
76345;DHT22;65160;50.504;3.666;2023-03-14T13:43:51;5.48;89.89
76345;DHT22;65160;50.504;3.666;2023-03-14T13:46:22;5.31;89.34
76345;DHT22;65160;50.504;3.666;2023-03-14T13:48:50;5.20;89.32
76345;DHT22;65160;50.504;3.666;2023-03-14T13:51:18;5.01;89.40
76345;DHT22;65160;50.504;3.666;2023-03-14T13:53:49;4.90;89.29
76345;DHT22;65160;50.504;3.666;2023-03-14T13:56:15;4.83;89.95
76345;DHT22;65160;50.504;3.666;2023-03-14T13:58:41;4.76;90.12
76345;DHT22;65160;50.504;3.666;2023-03-14T14:03:39;4.82;90.83
76345;DHT22;65160;50.504;3.666;2023-03-14T14:06:11;4.83;90.72
76345;DHT22;65160;50.504;3.666;2023-03-14T14:08:41;4.77;90.91
76345;DHT22;65160;50.504;3.666;2023-03-14T14:11:08;4.76;90.66
76345;DHT22;65160;50.504;3.666;2023-03-14T14:13:39;4.69;90.73
76345;DHT22;65160;50.504;3.666;2023-03-14T14:16:05;4.61;89.91
76345;DHT22;65160;50.504;3.666;2023-03-14T14:18:32;4.49;89.66
76345;DHT22;65160;50.504;3.666;2023-03-14T14:20:58;4.40;89.12
76345;DHT22;65160;50.504;3.666;2023-03-14T14:23:28;4.34;89.50
76345;DHT22;65160;50.504;3.666;2023-03-14T14:25:56;4.35;89.70
76345;DHT22;65160;50.504;3.666;2023-03-14T14:28:31;4.41;90.09
76345;DHT22;65160;50.504;3.666;2023-03-14T14:33:42;4.46;89.68
76345;DHT22;65160;50.504;3.666;2023-03-14T14:36:38;4.54;89.73
76345;DHT22;65160;50.504;3.666;2023-03-14T14:41:37;4.54;89.53
76345;DHT22;65160;50.504;3.666;2023-03-14T14:44:04;4.56;89.26
76345;DHT22;65160;50.504;3.666;2023-03-14T14:46:32;4.58;89.37
76345;DHT22;65160;50.504;3.666;2023-03-14T14:49:06;4.66;89.72
76345;DHT22;65160;50.504;3.666;2023-03-14T14:51:41;4.69;90.01
76345;DHT22;65160;50.504;3.666;2023-03-14T14:54:16;4.62;89.72
76345;DHT22;65160;50.504;3.666;2023-03-14T14:56:50;4.48;89.14
76345;DHT22;65160;50.504;3.666;2023-03-14T14:59:41;4.33;89.99
76345;DHT22;65160;50.504;3.666;2023-03-14T15:02:58;3.97;88.03
76345;DHT22;65160;50.504;3.666;2023-03-14T15:05:20;3.68;87.24
76345;DHT22;65160;50.504;3.666;2023-03-14T15:07:46;3.63;87.88
76345;DHT22;65160;50.504;3.666;2023-03-14T15:10:23;3.69;87.57
76345;DHT22;65160;50.504;3.666;2023-03-14T15:12:49;3.75;87.61
76345;DHT22;65160;50.504;3.666;2023-03-14T15:15:15;3.82;87.39
76345;DHT22;65160;50.504;3.666;2023-03-14T15:17:41;3.83;86.24
76345;DHT22;65160;50.504;3.666;2023-03-14T15:20:12;3.94;86.72
76345;DHT22;65160;50.504;3.666;2023-03-14T15:22:39;4.06;87.29
76345;DHT22;65160;50.504;3.666;2023-03-14T15:25:05;4.11;85.94
76345;DHT22;65160;50.504;3.666;2023-03-14T15:27:31;4.11;85.77
76345;DHT22;65160;50.504;3.666;2023-03-14T15:29:57;4.18;86.35
76345;DHT22;65160;50.504;3.666;2023-03-14T15:32:22;4.22;85.58
76345;DHT22;65160;50.504;3.666;2023-03-14T15:34:48;4.27;85.82
76345;DHT22;65160;50.504;3.666;2023-03-14T15:37:15;4.34;85.66
76345;DHT22;65160;50.504;3.666;2023-03-14T15:39:42;4.38;86.09
76345;DHT22;65160;50.504;3.666;2023-03-14T15:42:08;4.41;86.19
76345;DHT22;65160;50.504;3.666;2023-03-14T15:44:34;4.46;85.25
76345;DHT22;65160;50.504;3.666;2023-03-14T15:46:59;4.69;87.85
76345;DHT22;65160;50.504;3.666;2023-03-14T15:49:25;4.63;85.33
76345;DHT22;65160;50.504;3.666;2023-03-14T15:51:51;4.84;87.19
76345;DHT22;65160;50.504;3.666;2023-03-14T15:54:16;4.89;86.96
76345;DHT22;65160;50.504;3.666;2023-03-14T15:56:42;4.86;86.42
76345;DHT22;65160;50.504;3.666;2023-03-14T15:59:08;4.97;85.60
76345;DHT22;65160;50.504;3.666;2023-03-14T16:01:33;5.07;86.19
76345;DHT22;65160;50.504;3.666;2023-03-14T16:03:58;5.07;86.53
76345;DHT22;65160;50.504;3.666;2023-03-14T16:06:24;5.14;87.60
76345;DHT22;65160;50.504;3.666;2023-03-14T16:08:50;5.17;87.44
76345;DHT22;65160;50.504;3.666;2023-03-14T16:11:16;5.14;85.67
76345;DHT22;65160;50.504;3.666;2023-03-14T16:13:43;5.11;84.67
76345;DHT22;65160;50.504;3.666;2023-03-14T16:16:09;5.06;84.93
76345;DHT22;65160;50.504;3.666;2023-03-14T16:18:36;5.11;85.07
76345;DHT22;65160;50.504;3.666;2023-03-14T16:21:07;5.11;85.80
76345;DHT22;65160;50.504;3.666;2023-03-14T16:23:34;5.01;84.05
76345;DHT22;65160;50.504;3.666;2023-03-14T16:26:06;5.03;85.59
76345;DHT22;65160;50.504;3.666;2023-03-14T16:28:32;5.21;86.47
76345;DHT22;65160;50.504;3.666;2023-03-14T16:31:02;5.30;85.21
76345;DHT22;65160;50.504;3.666;2023-03-14T16:33:29;5.34;85.60
76345;DHT22;65160;50.504;3.666;2023-03-14T16:35:59;5.35;84.64
76345;DHT22;65160;50.504;3.666;2023-03-14T16:38:25;5.41;84.18
76345;DHT22;65160;50.504;3.666;2023-03-14T16:41:13;5.45;84.35
76345;DHT22;65160;50.504;3.666;2023-03-14T16:43:39;5.38;85.56
76345;DHT22;65160;50.504;3.666;2023-03-14T16:46:07;5.52;86.41
76345;DHT22;65160;50.504;3.666;2023-03-14T16:48:33;5.51;85.74
76345;DHT22;65160;50.504;3.666;2023-03-14T16:50:59;5.32;84.28
76345;DHT22;65160;50.504;3.666;2023-03-14T16:53:25;5.26;84.60
76345;DHT22;65160;50.504;3.666;2023-03-14T16:55:53;5.26;84.37